sensor_id;sensor_type;location;lat;lon;timestamp;P1;durP1;ratioP1;P2;durP2;ratioP2
12445;SDS011;6287;50.984;7.022;2023-07-31T00:00:42;3.90;;;1.97;;
12445;SDS011;6287;50.984;7.022;2023-07-31T00:03:08;3.50;;;2.33;;
12445;SDS011;6287;50.984;7.022;2023-07-31T00:05:33;2.83;;;2.07;;
12445;SDS011;6287;50.984;7.022;2023-07-31T00:07:59;4.47;;;2.37;;
12445;SDS011;6287;50.984;7.022;2023-07-31T00:10:26;2.37;;;1.70;;
12445;SDS011;6287;50.984;7.022;2023-07-31T00:12:52;3.90;;;2.00;;
12445;SDS011;6287;50.984;7.022;2023-07-31T00:15:18;5.20;;;1.80;;
12445;SDS011;6287;50.984;7.022;2023-07-31T00:17:48;3.27;;;1.83;;
12445;SDS011;6287;50.984;7.022;2023-07-31T00:20:13;5.47;;;2.20;;
12445;SDS011;6287;50.984;7.022;2023-07-31T00:22:39;2.47;;;1.60;;
12445;SDS011;6287;50.984;7.022;2023-07-31T00:25:07;4.13;;;2.13;;
12445;SDS011;6287;50.984;7.022;2023-07-31T00:27:35;3.97;;;2.00;;
12445;SDS011;6287;50.984;7.022;2023-07-31T00:30:00;4.80;;;2.30;;
12445;SDS011;6287;50.984;7.022;2023-07-31T00:32:28;4.90;;;2.20;;
12445;SDS011;6287;50.984;7.022;2023-07-31T00:34:54;2.63;;;2.13;;
12445;SDS011;6287;50.984;7.022;2023-07-31T00:37:19;3.60;;;2.20;;
12445;SDS011;6287;50.984;7.022;2023-07-31T00:39:45;5.30;;;1.90;;
12445;SDS011;6287;50.984;7.022;2023-07-31T00:42:11;4.47;;;2.27;;
12445;SDS011;6287;50.984;7.022;2023-07-31T00:44:38;3.37;;;1.93;;
12445;SDS011;6287;50.984;7.022;2023-07-31T00:47:04;3.27;;;2.20;;
12445;SDS011;6287;50.984;7.022;2023-07-31T00:49:35;3.05;;;1.88;;
12445;SDS011;6287;50.984;7.022;2023-07-31T00:52:00;3.90;;;2.00;;
12445;SDS011;6287;50.984;7.022;2023-07-31T00:54:27;5.67;;;2.50;;
12445;SDS011;6287;50.984;7.022;2023-07-31T00:56:55;3.83;;;1.87;;
12445;SDS011;6287;50.984;7.022;2023-07-31T00:59:22;2.27;;;1.63;;
12445;SDS011;6287;50.984;7.022;2023-07-31T01:01:51;2.23;;;1.70;;
12445;SDS011;6287;50.984;7.022;2023-07-31T01:04:17;3.70;;;1.97;;
12445;SDS011;6287;50.984;7.022;2023-07-31T01:06:57;2.20;;;1.77;;
12445;SDS011;6287;50.984;7.022;2023-07-31T01:09:44;2.13;;;1.80;;
12445;SDS011;6287;50.984;7.022;2023-07-31T01:12:17;4.63;;;1.80;;
12445;SDS011;6287;50.984;7.022;2023-07-31T01:15:07;3.38;;;1.80;;
12445;SDS011;6287;50.984;7.022;2023-07-31T01:17:35;2.63;;;1.63;;
12445;SDS011;6287;50.984;7.022;2023-07-31T01:20:23;4.47;;;1.80;;
12445;SDS011;6287;50.984;7.022;2023-07-31T01:31:23;5.43;;;2.10;;
12445;SDS011;6287;50.984;7.022;2023-07-31T01:33:53;2.00;;;1.60;;
12445;SDS011;6287;50.984;7.022;2023-07-31T01:36:20;4.93;;;2.20;;
12445;SDS011;6287;50.984;7.022;2023-07-31T01:38:51;3.33;;;1.80;;
12445;SDS011;6287;50.984;7.022;2023-07-31T01:41:17;3.03;;;1.83;;
12445;SDS011;6287;50.984;7.022;2023-07-31T01:43:45;3.67;;;1.77;;
12445;SDS011;6287;50.984;7.022;2023-07-31T01:46:16;3.67;;;1.87;;
12445;SDS011;6287;50.984;7.022;2023-07-31T01:48:46;2.60;;;1.90;;
12445;SDS011;6287;50.984;7.022;2023-07-31T01:51:12;3.37;;;1.63;;
12445;SDS011;6287;50.984;7.022;2023-07-31T01:53:40;3.73;;;1.97;;
12445;SDS011;6287;50.984;7.022;2023-07-31T01:56:05;4.03;;;2.00;;
12445;SDS011;6287;50.984;7.022;2023-07-31T01:58:33;4.30;;;1.80;;
12445;SDS011;6287;50.984;7.022;2023-07-31T02:01:01;2.97;;;1.80;;
12445;SDS011;6287;50.984;7.022;2023-07-31T02:03:29;3.63;;;1.67;;
12445;SDS011;6287;50.984;7.022;2023-07-31T02:05:55;3.63;;;1.70;;
12445;SDS011;6287;50.984;7.022;2023-07-31T02:08:21;3.03;;;1.80;;
12445;SDS011;6287;50.984;7.022;2023-07-31T02:10:49;6.03;;;2.03;;
12445;SDS011;6287;50.984;7.022;2023-07-31T02:13:15;3.03;;;1.73;;
12445;SDS011;6287;50.984;7.022;2023-07-31T02:15:42;3.70;;;1.90;;
12445;SDS011;6287;50.984;7.022;2023-07-31T02:18:08;2.07;;;1.50;;
12445;SDS011;6287;50.984;7.022;2023-07-31T02:20:36;4.00;;;2.10;;
12445;SDS011;6287;50.984;7.022;2023-07-31T02:23:04;1.90;;;1.60;;
12445;SDS011;6287;50.984;7.022;2023-07-31T02:25:32;6.17;;;2.10;;
12445;SDS011;6287;50.984;7.022;2023-07-31T02:27:58;3.67;;;2.03;;
12445;SDS011;6287;50.984;7.022;2023-07-31T02:30:25;2.83;;;1.60;;
12445;SDS011;6287;50.984;7.022;2023-07-31T02:32:51;4.07;;;1.83;;
12445;SDS011;6287;50.984;7.022;2023-07-31T02:35:19;3.83;;;2.00;;
12445;SDS011;6287;50.984;7.022;2023-07-31T02:37:48;4.15;;;2.15;;
12445;SDS011;6287;50.984;7.022;2023-07-31T02:40:14;3.15;;;2.08;;
12445;SDS011;6287;50.984;7.022;2023-07-31T02:42:42;3.43;;;1.80;;
12445;SDS011;6287;50.984;7.022;2023-07-31T02:45:07;2.35;;;1.65;;
12445;SDS011;6287;50.984;7.022;2023-07-31T02:47:33;3.57;;;2.23;;
12445;SDS011;6287;50.984;7.022;2023-07-31T02:49:59;3.17;;;1.83;;
12445;SDS011;6287;50.984;7.022;2023-07-31T02:52:25;4.10;;;1.95;;
12445;SDS011;6287;50.984;7.022;2023-07-31T02:54:50;3.90;;;1.53;;
12445;SDS011;6287;50.984;7.022;2023-07-31T02:57:18;3.07;;;1.77;;
12445;SDS011;6287;50.984;7.022;2023-07-31T02:59:46;3.30;;;1.63;;
12445;SDS011;6287;50.984;7.022;2023-07-31T03:02:12;4.33;;;2.33;;
12445;SDS011;6287;50.984;7.022;2023-07-31T03:04:38;3.13;;;1.80;;
12445;SDS011;6287;50.984;7.022;2023-07-31T03:07:04;4.43;;;1.70;;
12445;SDS011;6287;50.984;7.022;2023-07-31T03:09:32;4.40;;;1.80;;
12445;SDS011;6287;50.984;7.022;2023-07-31T03:12:01;3.00;;;1.90;;
12445;SDS011;6287;50.984;7.022;2023-07-31T03:14:27;6.47;;;2.10;;
12445;SDS011;6287;50.984;7.022;2023-07-31T03:16:53;2.67;;;1.73;;
12445;SDS011;6287;50.984;7.022;2023-07-31T03:19:21;3.88;;;1.98;;
12445;SDS011;6287;50.984;7.022;2023-07-31T03:21:51;2.90;;;2.10;;
12445;SDS011;6287;50.984;7.022;2023-07-31T03:24:20;3.15;;;2.20;;
12445;SDS011;6287;50.984;7.022;2023-07-31T03:26:48;4.45;;;1.90;;
12445;SDS011;6287;50.984;7.022;2023-07-31T03:29:16;4.73;;;1.90;;
12445;SDS011;6287;50.984;7.022;2023-07-31T03:31:41;2.33;;;1.80;;
12445;SDS011;6287;50.984;7.022;2023-07-31T03:34:07;3.97;;;2.15;;
12445;SDS011;6287;50.984;7.022;2023-07-31T03:36:33;4.75;;;2.13;;
12445;SDS011;6287;50.984;7.022;2023-07-31T03:39:01;4.30;;;2.00;;
12445;SDS011;6287;50.984;7.022;2023-07-31T03:41:30;6.18;;;2.30;;
12445;SDS011;6287;50.984;7.022;2023-07-31T03:43:56;3.23;;;1.97;;
12445;SDS011;6287;50.984;7.022;2023-07-31T03:46:22;4.57;;;2.65;;
12445;SDS011;6287;50.984;7.022;2023-07-31T03:48:48;2.42;;;1.83;;
12445;SDS011;6287;50.984;7.022;2023-07-31T03:51:14;3.63;;;2.03;;
12445;SDS011;6287;50.984;7.022;2023-07-31T03:53:42;3.85;;;2.00;;
12445;SDS011;6287;50.984;7.022;2023-07-31T03:56:08;3.20;;;2.13;;
12445;SDS011;6287;50.984;7.022;2023-07-31T03:58:34;5.50;;;3.87;;
12445;SDS011;6287;50.984;7.022;2023-07-31T04:01:01;6.47;;;2.50;;
12445;SDS011;6287;50.984;7.022;2023-07-31T04:03:33;5.80;;;2.50;;
12445;SDS011;6287;50.984;7.022;2023-07-31T04:06:03;2.80;;;2.00;;
12445;SDS011;6287;50.984;7.022;2023-07-31T04:08:28;3.33;;;2.27;;
12445;SDS011;6287;50.984;7.022;2023-07-31T04:10:56;4.63;;;2.43;;
12445;SDS011;6287;50.984;7.022;2023-07-31T04:13:23;4.88;;;2.40;;
12445;SDS011;6287;50.984;7.022;2023-07-31T04:15:49;5.33;;;2.33;;
12445;SDS011;6287;50.984;7.022;2023-07-31T04:18:21;5.50;;;2.53;;
12445;SDS011;6287;50.984;7.022;2023-07-31T04:20:52;3.27;;;2.37;;
12445;SDS011;6287;50.984;7.022;2023-07-31T04:23:18;5.20;;;2.73;;
12445;SDS011;6287;50.984;7.022;2023-07-31T04:25:45;3.65;;;2.38;;
12445;SDS011;6287;50.984;7.022;2023-07-31T04:28:16;4.40;;;2.90;;
12445;SDS011;6287;50.984;7.022;2023-07-31T04:30:43;4.67;;;2.50;;
12445;SDS011;6287;50.984;7.022;2023-07-31T04:33:13;3.83;;;2.25;;
12445;SDS011;6287;50.984;7.022;2023-07-31T04:35:41;2.92;;;2.25;;
12445;SDS011;6287;50.984;7.022;2023-07-31T04:38:13;4.15;;;2.30;;
12445;SDS011;6287;50.984;7.022;2023-07-31T04:40:38;2.77;;;2.30;;
12445;SDS011;6287;50.984;7.022;2023-07-31T04:43:06;4.00;;;2.45;;
12445;SDS011;6287;50.984;7.022;2023-07-31T04:45:37;4.55;;;2.50;;
12445;SDS011;6287;50.984;7.022;2023-07-31T04:48:02;4.80;;;2.85;;
12445;SDS011;6287;50.984;7.022;2023-07-31T04:50:28;4.57;;;2.70;;
12445;SDS011;6287;50.984;7.022;2023-07-31T04:52:56;5.40;;;2.17;;
12445;SDS011;6287;50.984;7.022;2023-07-31T04:55:25;4.05;;;2.70;;
12445;SDS011;6287;50.984;7.022;2023-07-31T04:57:53;2.80;;;2.37;;
12445;SDS011;6287;50.984;7.022;2023-07-31T05:00:19;4.17;;;2.20;;
12445;SDS011;6287;50.984;7.022;2023-07-31T05:02:45;4.00;;;2.65;;
12445;SDS011;6287;50.984;7.022;2023-07-31T05:05:12;2.72;;;2.20;;
12445;SDS011;6287;50.984;7.022;2023-07-31T05:07:42;3.63;;;2.63;;
12445;SDS011;6287;50.984;7.022;2023-07-31T05:10:08;3.95;;;2.55;;
12445;SDS011;6287;50.984;7.022;2023-07-31T05:12:39;5.00;;;2.13;;
12445;SDS011;6287;50.984;7.022;2023-07-31T05:15:07;2.90;;;2.30;;
12445;SDS011;6287;50.984;7.022;2023-07-31T05:17:33;4.75;;;2.50;;
12445;SDS011;6287;50.984;7.022;2023-07-31T05:19:59;3.05;;;2.00;;
12445;SDS011;6287;50.984;7.022;2023-07-31T05:22:24;4.15;;;2.40;;
12445;SDS011;6287;50.984;7.022;2023-07-31T05:24:54;4.75;;;1.90;;
12445;SDS011;6287;50.984;7.022;2023-07-31T05:27:20;5.18;;;2.35;;
12445;SDS011;6287;50.984;7.022;2023-07-31T05:29:48;2.85;;;2.00;;
12445;SDS011;6287;50.984;7.022;2023-07-31T05:32:14;3.17;;;2.30;;
12445;SDS011;6287;50.984;7.022;2023-07-31T05:34:41;6.30;;;2.88;;
12445;SDS011;6287;50.984;7.022;2023-07-31T05:37:10;3.20;;;2.30;;
12445;SDS011;6287;50.984;7.022;2023-07-31T05:39:36;3.67;;;2.45;;
12445;SDS011;6287;50.984;7.022;2023-07-31T05:42:02;4.22;;;2.53;;
12445;SDS011;6287;50.984;7.022;2023-07-31T05:44:28;2.97;;;2.35;;
12445;SDS011;6287;50.984;7.022;2023-07-31T05:46:56;4.57;;;2.40;;
12445;SDS011;6287;50.984;7.022;2023-07-31T05:49:24;4.07;;;2.10;;
12445;SDS011;6287;50.984;7.022;2023-07-31T05:51:52;4.57;;;2.33;;
12445;SDS011;6287;50.984;7.022;2023-07-31T05:54:17;3.97;;;2.47;;
12445;SDS011;6287;50.984;7.022;2023-07-31T05:56:43;4.57;;;2.17;;
12445;SDS011;6287;50.984;7.022;2023-07-31T05:59:11;5.60;;;2.80;;
12445;SDS011;6287;50.984;7.022;2023-07-31T06:01:44;5.40;;;2.13;;
12445;SDS011;6287;50.984;7.022;2023-07-31T06:04:10;4.03;;;2.35;;
12445;SDS011;6287;50.984;7.022;2023-07-31T06:06:35;3.90;;;2.50;;
12445;SDS011;6287;50.984;7.022;2023-07-31T06:09:01;3.63;;;2.20;;
12445;SDS011;6287;50.984;7.022;2023-07-31T06:11:28;4.32;;;2.50;;
12445;SDS011;6287;50.984;7.022;2023-07-31T06:13:56;4.00;;;2.28;;
12445;SDS011;6287;50.984;7.022;2023-07-31T06:16:24;4.05;;;2.50;;
12445;SDS011;6287;50.984;7.022;2023-07-31T06:18:50;4.03;;;2.40;;
12445;SDS011;6287;50.984;7.022;2023-07-31T06:21:16;3.50;;;2.53;;
12445;SDS011;6287;50.984;7.022;2023-07-31T06:23:42;3.08;;;2.20;;
12445;SDS011;6287;50.984;7.022;2023-07-31T06:26:08;4.45;;;2.50;;
12445;SDS011;6287;50.984;7.022;2023-07-31T06:28:38;4.78;;;2.83;;
12445;SDS011;6287;50.984;7.022;2023-07-31T06:31:03;4.05;;;2.38;;
12445;SDS011;6287;50.984;7.022;2023-07-31T06:33:29;4.45;;;2.45;;
12445;SDS011;6287;50.984;7.022;2023-07-31T06:35:55;3.60;;;2.08;;
12445;SDS011;6287;50.984;7.022;2023-07-31T06:38:26;5.07;;;2.95;;
12445;SDS011;6287;50.984;7.022;2023-07-31T06:40:52;4.78;;;2.70;;
12445;SDS011;6287;50.984;7.022;2023-07-31T06:43:18;7.45;;;2.45;;
12445;SDS011;6287;50.984;7.022;2023-07-31T06:45:44;3.83;;;2.42;;
12445;SDS011;6287;50.984;7.022;2023-07-31T06:48:10;2.92;;;2.28;;
12445;SDS011;6287;50.984;7.022;2023-07-31T06:50:36;5.22;;;2.55;;
12445;SDS011;6287;50.984;7.022;2023-07-31T06:53:04;2.78;;;2.47;;
12445;SDS011;6287;50.984;7.022;2023-07-31T06:55:31;4.13;;;2.40;;
12445;SDS011;6287;50.984;7.022;2023-07-31T06:58:00;3.35;;;2.60;;
12445;SDS011;6287;50.984;7.022;2023-07-31T07:00:30;4.72;;;2.72;;
12445;SDS011;6287;50.984;7.022;2023-07-31T07:03:00;4.68;;;2.90;;
12445;SDS011;6287;50.984;7.022;2023-07-31T07:05:26;3.92;;;2.65;;
12445;SDS011;6287;50.984;7.022;2023-07-31T07:07:56;5.53;;;2.70;;
12445;SDS011;6287;50.984;7.022;2023-07-31T07:10:22;3.80;;;2.40;;
12445;SDS011;6287;50.984;7.022;2023-07-31T07:12:47;4.10;;;2.63;;
12445;SDS011;6287;50.984;7.022;2023-07-31T07:15:13;4.72;;;2.42;;
12445;SDS011;6287;50.984;7.022;2023-07-31T07:17:39;4.32;;;2.30;;
12445;SDS011;6287;50.984;7.022;2023-07-31T07:20:07;3.60;;;2.60;;
12445;SDS011;6287;50.984;7.022;2023-07-31T07:22:35;4.00;;;2.10;;
12445;SDS011;6287;50.984;7.022;2023-07-31T07:25:03;4.95;;;2.70;;
12445;SDS011;6287;50.984;7.022;2023-07-31T07:27:30;3.92;;;2.60;;
12445;SDS011;6287;50.984;7.022;2023-07-31T07:29:55;3.78;;;2.63;;
12445;SDS011;6287;50.984;7.022;2023-07-31T07:32:24;4.35;;;2.67;;
12445;SDS011;6287;50.984;7.022;2023-07-31T07:34:52;4.93;;;2.33;;
12445;SDS011;6287;50.984;7.022;2023-07-31T07:37:18;5.13;;;2.97;;
12445;SDS011;6287;50.984;7.022;2023-07-31T07:39:46;5.20;;;2.25;;
12445;SDS011;6287;50.984;7.022;2023-07-31T07:42:12;4.28;;;2.42;;
12445;SDS011;6287;50.984;7.022;2023-07-31T07:44:42;4.13;;;2.90;;
12445;SDS011;6287;50.984;7.022;2023-07-31T07:47:12;8.00;;;3.17;;
12445;SDS011;6287;50.984;7.022;2023-07-31T07:49:43;4.97;;;2.55;;
12445;SDS011;6287;50.984;7.022;2023-07-31T07:52:11;4.60;;;2.78;;
12445;SDS011;6287;50.984;7.022;2023-07-31T07:54:39;4.43;;;2.83;;
12445;SDS011;6287;50.984;7.022;2023-07-31T07:57:12;5.75;;;2.45;;
12445;SDS011;6287;50.984;7.022;2023-07-31T07:59:40;5.00;;;2.72;;
12445;SDS011;6287;50.984;7.022;2023-07-31T08:02:09;3.67;;;2.65;;
12445;SDS011;6287;50.984;7.022;2023-07-31T08:04:34;3.88;;;2.40;;
12445;SDS011;6287;50.984;7.022;2023-07-31T08:07:00;2.65;;;2.42;;
12445;SDS011;6287;50.984;7.022;2023-07-31T08:09:28;5.43;;;2.88;;
12445;SDS011;6287;50.984;7.022;2023-07-31T08:11:56;4.05;;;2.15;;
12445;SDS011;6287;50.984;7.022;2023-07-31T08:14:27;4.00;;;2.67;;
12445;SDS011;6287;50.984;7.022;2023-07-31T08:16:53;3.97;;;2.42;;
12445;SDS011;6287;50.984;7.022;2023-07-31T08:19:23;2.78;;;2.03;;
12445;SDS011;6287;50.984;7.022;2023-07-31T08:21:49;3.20;;;2.30;;
12445;SDS011;6287;50.984;7.022;2023-07-31T08:24:17;4.03;;;2.10;;
12445;SDS011;6287;50.984;7.022;2023-07-31T08:26:50;3.67;;;1.90;;
12445;SDS011;6287;50.984;7.022;2023-07-31T08:29:16;2.00;;;1.80;;
12445;SDS011;6287;50.984;7.022;2023-07-31T08:31:44;2.92;;;2.00;;
12445;SDS011;6287;50.984;7.022;2023-07-31T08:34:09;2.85;;;1.88;;
12445;SDS011;6287;50.984;7.022;2023-07-31T08:36:38;6.90;;;2.03;;
12445;SDS011;6287;50.984;7.022;2023-07-31T08:39:04;2.70;;;1.80;;
12445;SDS011;6287;50.984;7.022;2023-07-31T08:41:40;3.17;;;2.40;;
12445;SDS011;6287;50.984;7.022;2023-07-31T08:44:08;2.60;;;1.65;;
12445;SDS011;6287;50.984;7.022;2023-07-31T08:46:39;3.08;;;1.95;;
12445;SDS011;6287;50.984;7.022;2023-07-31T08:49:05;5.20;;;2.00;;
12445;SDS011;6287;50.984;7.022;2023-07-31T08:51:33;3.75;;;2.10;;
12445;SDS011;6287;50.984;7.022;2023-07-31T08:54:00;1.70;;;1.60;;
12445;SDS011;6287;50.984;7.022;2023-07-31T08:56:28;3.90;;;2.10;;
12445;SDS011;6287;50.984;7.022;2023-07-31T08:58:54;2.97;;;2.10;;
12445;SDS011;6287;50.984;7.022;2023-07-31T09:01:21;5.45;;;2.20;;
12445;SDS011;6287;50.984;7.022;2023-07-31T09:03:49;2.75;;;2.15;;
12445;SDS011;6287;50.984;7.022;2023-07-31T09:06:17;4.28;;;1.92;;
12445;SDS011;6287;50.984;7.022;2023-07-31T09:08:48;4.22;;;2.20;;
12445;SDS011;6287;50.984;7.022;2023-07-31T09:11:17;4.88;;;2.60;;
12445;SDS011;6287;50.984;7.022;2023-07-31T09:13:49;4.03;;;2.42;;
12445;SDS011;6287;50.984;7.022;2023-07-31T09:16:19;5.03;;;2.50;;
12445;SDS011;6287;50.984;7.022;2023-07-31T09:18:58;4.65;;;2.45;;
12445;SDS011;6287;50.984;7.022;2023-07-31T09:21:32;3.67;;;2.42;;
12445;SDS011;6287;50.984;7.022;2023-07-31T09:24:14;3.72;;;2.10;;
12445;SDS011;6287;50.984;7.022;2023-07-31T09:27:00;4.32;;;2.30;;
12445;SDS011;6287;50.984;7.022;2023-07-31T09:29:27;2.80;;;2.08;;
12445;SDS011;6287;50.984;7.022;2023-07-31T09:31:54;5.05;;;2.22;;
12445;SDS011;6287;50.984;7.022;2023-07-31T09:34:28;4.22;;;2.42;;
12445;SDS011;6287;50.984;7.022;2023-07-31T09:36:57;1.90;;;1.70;;
12445;SDS011;6287;50.984;7.022;2023-07-31T09:39:26;3.10;;;2.10;;
12445;SDS011;6287;50.984;7.022;2023-07-31T09:41:54;5.10;;;2.67;;
12445;SDS011;6287;50.984;7.022;2023-07-31T09:44:21;3.00;;;2.03;;
12445;SDS011;6287;50.984;7.022;2023-07-31T09:47:04;3.03;;;1.88;;
12445;SDS011;6287;50.984;7.022;2023-07-31T09:49:30;3.47;;;2.38;;
12445;SDS011;6287;50.984;7.022;2023-07-31T09:51:56;3.10;;;1.90;;
12445;SDS011;6287;50.984;7.022;2023-07-31T09:54:21;3.83;;;2.20;;
12445;SDS011;6287;50.984;7.022;2023-07-31T09:56:52;2.60;;;2.13;;
12445;SDS011;6287;50.984;7.022;2023-07-31T09:59:19;4.43;;;2.08;;
12445;SDS011;6287;50.984;7.022;2023-07-31T10:01:47;2.42;;;1.95;;
12445;SDS011;6287;50.984;7.022;2023-07-31T10:04:16;4.15;;;2.08;;
12445;SDS011;6287;50.984;7.022;2023-07-31T10:06:45;2.00;;;1.77;;
12445;SDS011;6287;50.984;7.022;2023-07-31T10:09:12;2.88;;;2.28;;
12445;SDS011;6287;50.984;7.022;2023-07-31T10:11:53;2.25;;;1.63;;
12445;SDS011;6287;50.984;7.022;2023-07-31T10:14:24;3.55;;;1.75;;
12445;SDS011;6287;50.984;7.022;2023-07-31T10:16:52;4.10;;;2.13;;
12445;SDS011;6287;50.984;7.022;2023-07-31T10:19:18;2.45;;;1.83;;
12445;SDS011;6287;50.984;7.022;2023-07-31T10:21:45;3.45;;;1.85;;
12445;SDS011;6287;50.984;7.022;2023-07-31T10:24:13;1.77;;;1.67;;
12445;SDS011;6287;50.984;7.022;2023-07-31T10:26:43;3.17;;;2.00;;
12445;SDS011;6287;50.984;7.022;2023-07-31T10:29:10;3.42;;;2.00;;
12445;SDS011;6287;50.984;7.022;2023-07-31T10:31:36;2.45;;;1.92;;
12445;SDS011;6287;50.984;7.022;2023-07-31T10:34:03;4.78;;;1.80;;
12445;SDS011;6287;50.984;7.022;2023-07-31T10:36:29;3.25;;;1.70;;
12445;SDS011;6287;50.984;7.022;2023-07-31T10:39:00;2.28;;;1.88;;
12445;SDS011;6287;50.984;7.022;2023-07-31T10:41:31;4.07;;;2.10;;
12445;SDS011;6287;50.984;7.022;2023-07-31T10:44:00;4.18;;;2.05;;
12445;SDS011;6287;50.984;7.022;2023-07-31T10:46:32;2.22;;;1.80;;
12445;SDS011;6287;50.984;7.022;2023-07-31T10:48:58;1.88;;;1.58;;
12445;SDS011;6287;50.984;7.022;2023-07-31T10:51:34;2.13;;;1.58;;
12445;SDS011;6287;50.984;7.022;2023-07-31T10:54:10;2.13;;;1.90;;
12445;SDS011;6287;50.984;7.022;2023-07-31T10:56:40;1.83;;;1.55;;
12445;SDS011;6287;50.984;7.022;2023-07-31T10:59:11;2.80;;;2.05;;
12445;SDS011;6287;50.984;7.022;2023-07-31T11:04:21;2.33;;;1.50;;
12445;SDS011;6287;50.984;7.022;2023-07-31T11:07:00;3.13;;;1.60;;
12445;SDS011;6287;50.984;7.022;2023-07-31T11:09:33;2.35;;;1.70;;
12445;SDS011;6287;50.984;7.022;2023-07-31T11:12:01;2.20;;;1.33;;
12445;SDS011;6287;50.984;7.022;2023-07-31T11:14:27;2.42;;;1.45;;
12445;SDS011;6287;50.984;7.022;2023-07-31T11:16:58;1.85;;;1.20;;
12445;SDS011;6287;50.984;7.022;2023-07-31T11:19:33;1.73;;;1.10;;
12445;SDS011;6287;50.984;7.022;2023-07-31T11:21:58;1.50;;;1.35;;
12445;SDS011;6287;50.984;7.022;2023-07-31T11:24:26;1.52;;;1.30;;
12445;SDS011;6287;50.984;7.022;2023-07-31T11:26:54;2.05;;;1.00;;
12445;SDS011;6287;50.984;7.022;2023-07-31T11:29:29;1.25;;;0.80;;
12445;SDS011;6287;50.984;7.022;2023-07-31T11:31:56;0.90;;;0.90;;
12445;SDS011;6287;50.984;7.022;2023-07-31T11:34:21;1.70;;;1.10;;
12445;SDS011;6287;50.984;7.022;2023-07-31T11:36:53;1.33;;;1.10;;
12445;SDS011;6287;50.984;7.022;2023-07-31T11:39:20;0.85;;;0.85;;
12445;SDS011;6287;50.984;7.022;2023-07-31T11:41:49;0.77;;;0.68;;
12445;SDS011;6287;50.984;7.022;2023-07-31T11:44:17;1.25;;;0.80;;
12445;SDS011;6287;50.984;7.022;2023-07-31T11:46:45;0.80;;;0.80;;
12445;SDS011;6287;50.984;7.022;2023-07-31T11:49:12;0.73;;;0.73;;
12445;SDS011;6287;50.984;7.022;2023-07-31T11:51:40;1.25;;;0.80;;
12445;SDS011;6287;50.984;7.022;2023-07-31T11:54:11;0.60;;;0.60;;
12445;SDS011;6287;50.984;7.022;2023-07-31T11:56:41;0.55;;;0.55;;
12445;SDS011;6287;50.984;7.022;2023-07-31T11:59:09;1.00;;;0.70;;
12445;SDS011;6287;50.984;7.022;2023-07-31T12:01:37;0.77;;;0.63;;
12445;SDS011;6287;50.984;7.022;2023-07-31T12:04:02;0.60;;;0.50;;
12445;SDS011;6287;50.984;7.022;2023-07-31T12:06:32;0.45;;;0.45;;
12445;SDS011;6287;50.984;7.022;2023-07-31T12:09:03;0.80;;;0.50;;
12445;SDS011;6287;50.984;7.022;2023-07-31T12:11:30;0.90;;;0.45;;
12445;SDS011;6287;50.984;7.022;2023-07-31T12:13:58;0.45;;;0.45;;
12445;SDS011;6287;50.984;7.022;2023-07-31T12:16:26;0.40;;;0.40;;
12445;SDS011;6287;50.984;7.022;2023-07-31T12:18:53;0.40;;;0.40;;
12445;SDS011;6287;50.984;7.022;2023-07-31T12:21:21;0.60;;;0.60;;
12445;SDS011;6287;50.984;7.022;2023-07-31T12:23:51;0.50;;;0.50;;
12445;SDS011;6287;50.984;7.022;2023-07-31T12:26:18;0.50;;;0.50;;
12445;SDS011;6287;50.984;7.022;2023-07-31T12:28:54;0.70;;;0.70;;
12445;SDS011;6287;50.984;7.022;2023-07-31T12:31:22;0.50;;;0.50;;
12445;SDS011;6287;50.984;7.022;2023-07-31T12:33:53;0.60;;;0.60;;
12445;SDS011;6287;50.984;7.022;2023-07-31T12:36:20;0.55;;;0.55;;
12445;SDS011;6287;50.984;7.022;2023-07-31T12:38:47;0.75;;;0.75;;
12445;SDS011;6287;50.984;7.022;2023-07-31T12:41:16;0.80;;;0.80;;
12445;SDS011;6287;50.984;7.022;2023-07-31T12:43:43;0.90;;;0.90;;
12445;SDS011;6287;50.984;7.022;2023-07-31T12:46:11;0.90;;;0.90;;
12445;SDS011;6287;50.984;7.022;2023-07-31T12:48:37;1.23;;;0.70;;
12445;SDS011;6287;50.984;7.022;2023-07-31T12:51:04;1.88;;;0.80;;
12445;SDS011;6287;50.984;7.022;2023-07-31T12:53:33;1.00;;;0.98;;
12445;SDS011;6287;50.984;7.022;2023-07-31T12:55:58;1.10;;;1.02;;
12445;SDS011;6287;50.984;7.022;2023-07-31T12:58:24;0.75;;;0.75;;
12445;SDS011;6287;50.984;7.022;2023-07-31T13:00:50;1.25;;;1.00;;
12445;SDS011;6287;50.984;7.022;2023-07-31T13:03:18;0.82;;;0.70;;
12445;SDS011;6287;50.984;7.022;2023-07-31T13:05:43;1.00;;;0.90;;
12445;SDS011;6287;50.984;7.022;2023-07-31T13:08:09;2.58;;;1.20;;
12445;SDS011;6287;50.984;7.022;2023-07-31T13:10:37;1.88;;;1.20;;
12445;SDS011;6287;50.984;7.022;2023-07-31T13:13:05;1.13;;;1.02;;
12445;SDS011;6287;50.984;7.022;2023-07-31T13:15:30;1.75;;;1.10;;
12445;SDS011;6287;50.984;7.022;2023-07-31T13:17:58;2.22;;;1.20;;
12445;SDS011;6287;50.984;7.022;2023-07-31T13:20:24;1.13;;;1.02;;
12445;SDS011;6287;50.984;7.022;2023-07-31T13:22:52;1.40;;;1.23;;
12445;SDS011;6287;50.984;7.022;2023-07-31T13:25:20;2.90;;;1.70;;
12445;SDS011;6287;50.984;7.022;2023-07-31T13:27:46;1.55;;;1.45;;
12445;SDS011;6287;50.984;7.022;2023-07-31T13:30:16;2.47;;;1.23;;
12445;SDS011;6287;50.984;7.022;2023-07-31T13:32:42;2.33;;;1.40;;
12445;SDS011;6287;50.984;7.022;2023-07-31T13:35:07;1.67;;;1.23;;
12445;SDS011;6287;50.984;7.022;2023-07-31T13:37:36;1.90;;;1.42;;
12445;SDS011;6287;50.984;7.022;2023-07-31T13:40:02;1.67;;;1.10;;
12445;SDS011;6287;50.984;7.022;2023-07-31T13:42:29;1.50;;;1.38;;
12445;SDS011;6287;50.984;7.022;2023-07-31T13:44:56;1.90;;;1.45;;
12445;SDS011;6287;50.984;7.022;2023-07-31T13:47:21;2.17;;;1.70;;
12445;SDS011;6287;50.984;7.022;2023-07-31T13:49:47;1.48;;;1.38;;
12445;SDS011;6287;50.984;7.022;2023-07-31T13:52:15;1.30;;;1.20;;
12445;SDS011;6287;50.984;7.022;2023-07-31T13:54:42;1.63;;;1.50;;
12445;SDS011;6287;50.984;7.022;2023-07-31T13:57:08;2.38;;;1.40;;
12445;SDS011;6287;50.984;7.022;2023-07-31T13:59:34;1.55;;;1.30;;
12445;SDS011;6287;50.984;7.022;2023-07-31T14:02:04;1.67;;;1.55;;
12445;SDS011;6287;50.984;7.022;2023-07-31T14:04:30;1.63;;;1.40;;
12445;SDS011;6287;50.984;7.022;2023-07-31T14:06:58;1.60;;;1.30;;
12445;SDS011;6287;50.984;7.022;2023-07-31T14:09:26;1.85;;;1.42;;
12445;SDS011;6287;50.984;7.022;2023-07-31T14:11:53;2.20;;;1.65;;
12445;SDS011;6287;50.984;7.022;2023-07-31T14:14:21;1.50;;;1.40;;
12445;SDS011;6287;50.984;7.022;2023-07-31T14:16:47;1.35;;;1.25;;
12445;SDS011;6287;50.984;7.022;2023-07-31T14:19:14;2.15;;;1.50;;
12445;SDS011;6287;50.984;7.022;2023-07-31T14:21:42;2.60;;;1.25;;
12445;SDS011;6287;50.984;7.022;2023-07-31T14:24:08;1.25;;;1.15;;
12445;SDS011;6287;50.984;7.022;2023-07-31T14:26:33;2.90;;;1.45;;
12445;SDS011;6287;50.984;7.022;2023-07-31T14:29:01;2.30;;;1.30;;
12445;SDS011;6287;50.984;7.022;2023-07-31T14:31:29;1.63;;;1.52;;
12445;SDS011;6287;50.984;7.022;2023-07-31T14:33:55;2.17;;;1.73;;
12445;SDS011;6287;50.984;7.022;2023-07-31T14:36:23;1.80;;;1.20;;
12445;SDS011;6287;50.984;7.022;2023-07-31T14:38:48;1.45;;;1.20;;
12445;SDS011;6287;50.984;7.022;2023-07-31T14:41:16;2.20;;;1.65;;
12445;SDS011;6287;50.984;7.022;2023-07-31T14:43:42;1.52;;;1.42;;
12445;SDS011;6287;50.984;7.022;2023-07-31T14:46:08;1.70;;;1.60;;
12445;SDS011;6287;50.984;7.022;2023-07-31T14:48:33;1.40;;;1.30;;
12445;SDS011;6287;50.984;7.022;2023-07-31T14:50:59;1.38;;;1.23;;
12445;SDS011;6287;50.984;7.022;2023-07-31T14:53:30;2.63;;;1.73;;
12445;SDS011;6287;50.984;7.022;2023-07-31T14:55:55;2.45;;;1.52;;
12445;SDS011;6287;50.984;7.022;2023-07-31T14:58:22;2.10;;;1.75;;
12445;SDS011;6287;50.984;7.022;2023-07-31T15:00:47;2.17;;;1.77;;
12445;SDS011;6287;50.984;7.022;2023-07-31T15:03:15;2.08;;;1.80;;
12445;SDS011;6287;50.984;7.022;2023-07-31T15:05:41;1.75;;;1.63;;
12445;SDS011;6287;50.984;7.022;2023-07-31T15:08:06;2.83;;;2.13;;
12445;SDS011;6287;50.984;7.022;2023-07-31T15:10:37;3.20;;;2.05;;
12445;SDS011;6287;50.984;7.022;2023-07-31T15:13:02;2.13;;;1.80;;
12445;SDS011;6287;50.984;7.022;2023-07-31T15:15:28;2.90;;;1.63;;